Carlisle, KY (40311)

10:34 EST le 22 décembre 2014 (GMT -0500)
Ridge Road Jet Center | Change Station
CLOSE
Current Station
Stations météorologiques personnelles
Location: Owingsville, KY
Altitude: 899 ft
Stations météo à proximité

Alt. 899 ft 38.14 °N, 83.78 °W | Updated 8 minutes ago

Nuageux
Nuageux
43.9 ° F
Paraît 42 ° F
N
4.2
Vent Variable Vent de Est

Aujourd'hui
Haut(e) -- | Bas -- ° F
--% Risque de précip.
Hier
Haut(e) -- | Bas -- ° F
Precip. -- pouce
7:49 AM 5:19 PM
Nouvelle lune, 0% visible
Pression 30.02 pouce
Visibilité 10.0 Miles terrestres
Nuages Nuageux 3800 ft
Refroidissement éolien 42 ° F
Point de rosée 36 ° F
Humidité 74%
Précipitations 0.00 pouce
Profondeur de la couche neigeuse Non disponible.
UV 1 sur 12
Pollen .10 sur 12
Qualité de l'air Non disponible.
Flu Activity Non disponible.
METAR KIOB 221515Z AUTO 15006KT 10SM BKN038 05/01 A3002 RMK AO2

More Conditions Fewer Conditions

Pression 30.02 pouce
Visibilité 10.0 Miles terrestres
Nuages Nuageux 3800 ft
Refroidissement éolien 42 ° F
Point de rosée 36 ° F
Humidité 74%
Précipitations 0.00 pouce
Profondeur de la couche neigeuse Non disponible.
UV 1 sur 12
Pollen .10 sur 12
Qualité de l'air Non disponible.
Flu Activity Non disponible.
METAR KIOB 221515Z AUTO 15006KT 10SM BKN038 05/01 A3002 RMK AO2

More Conditions Fewer Conditions

10-Day Weather Forecast

Almanac

Astronomie

Dec. 22, 2014 Lever Coucher
Temps réel
Crépuscule civil
Crépuscule nautique
Crépuscule astronomique
Lune
Durée de lumière visible
Longueur du jour
Tomorrow will be .
, % of the Moon is Illuminated

Extrêmes aujourd'hui

State Highs State Lows

Community

WunderPhotos

Upload Photos

1,779,619 Photos téléchargées !

WunderBlogs® & News

Nearby

Qualité de l'air

  Qualité de l'air Indice de la qualité de l'air Polluant
Not available.

Épaisseur de neige

Station Depth Altitude

Activité sismique

Ville Distance Mag. Time & Date
Minimum magnitude displayed is 2.5.

Températures des eaux côtières

Lieu Température

Stations météo à proximité